8  °C
Temperature
46  °F
Temperature
45  °F
 Dewpoint
7  °C
  Dewpoint
93  %
 Humidity
  Temperature
12  mph
Wind Speed
10  kts
Wind Speed
19  km/h
Wind Speed
5.4  m/s
Wind Speed
230°
South West

Wind Speed
Mostly Scattered
Clouds
Pressure 1027.92 (hPa) - 30.35 (inHG)
Visibility 6.2 (mi) - 10.0 (km)

Sky Conditions
EGOS
Location RAF Shawbury 24 mi (38.62 km)
Metar :EGOS 200050Z AUTO 23010KT 9999 SCT009/// 08/07 Q1028
Wed 20th March 00:50 am

Nearest Airport
https://www.checkwx.com/weather/EGOS
  Metar Aviation API Data Provided by https://www.checkwx.com/ Original CSS/SVG/PHP scripts by weather34.com © 2015-2019